Reedtown, Ohio
Current Conditions -  °F | °C
As of 2:52 AM on Thursday 29 Jan 2015 (Local Time) from KMFD Reporting Station
Few Clouds Few Clouds  
Wind Chill: 12°   Ceiling: Unl
Heat Index: 26°   Visibility: 10mi
Dew Point: 13°   Wind: 20mph
Humidity: 58%   Direction: 150°SSE
Pressure: 30.05"   Gusts: NA
Location:  41.0654°N, 82.876°W
Report Text: KMFD 290752Z AUTO 15017KT 10SM FEW100 M03/M11 A3005 RMK AO2 SLP192 T10331106
Loading
Personal Weather Stations






























Interactive Weather Map New forecast layout! Learn more

10-Day Weather Forecast

Advertisements
Track Severe Weather on mobile